This is the latest recevied weather packets stored in our database for station/object KB3AWQ. If no packets are shown the sender has not sent any weather packets the latest 1 day(s).
| Time | Temp. | Humidity | Pressure | Rain* | Wind** | Luminosity | Snow |
|---|---|---|---|---|---|---|---|
| 1778014766 | 25° C | 50% | 1006.5 hPa | 0 mm | 0.45 m/s, 212° | 109 W/m² | - |
| 1778014468 | 25° C | 49% | 1006.5 hPa | 0 mm | 0 m/s | 225 W/m² | - |
| 1778014167 | 25° C | 47% | 1006.5 hPa | 0 mm | 0.45 m/s, 256° | 244 W/m² | - |
| 1778013867 | 25° C | 47% | 1006.5 hPa | 0 mm | 0.45 m/s, 243° | 196 W/m² | - |
| 1778013566 | 25° C | 46% | 1006.5 hPa | 0 mm | 0.45 m/s, 220° | 144 W/m² | - |
| 1778013267 | 25° C | 46% | 1006.6 hPa | 0 mm | 0.45 m/s, 233° | 170 W/m² | - |
| 1778012967 | 25° C | 45% | 1006.6 hPa | 0 mm | 0.45 m/s, 235° | 146 W/m² | - |
| 1778012666 | 25.56° C | 45% | 1006.6 hPa | 0 mm | 0.89 m/s, 226° | 95 W/m² | - |
| 1778012367 | 25.56° C | 42% | 1006.5 hPa | 0 mm | 1.79 m/s, 245° | 136 W/m² | - |
| 1778012068 | 25.56° C | 43% | 1006.3 hPa | 0 mm | 1.34 m/s, 229° | 118 W/m² | - |
| 1778011768 | 25.56° C | 46% | 1006.2 hPa | 0 mm | 0.45 m/s, 219° | 232 W/m² | - |
| 1778011470 | 26.11° C | 45% | 1006.3 hPa | 0 mm | 0.45 m/s, 242° | 152 W/m² | - |
| 1778011168 | 26.11° C | 42% | 1006.3 hPa | 0 mm | 0.89 m/s, 250° | 137 W/m² | - |
| 1778010868 | 26.11° C | 42% | 1006.2 hPa | 0 mm | 0.89 m/s, 259° | 148 W/m² | - |
| 1778010567 | 26.11° C | 42% | 1006.3 hPa | 0 mm | 0.89 m/s, 238° | 108 W/m² | - |
| 1778010267 | 26.67° C | 41% | 1006.3 hPa | 0 mm | 0.45 m/s, 243° | 99 W/m² | - |
| 1778009966 | 26.67° C | 39% | 1006.3 hPa | 0 mm | 0.89 m/s, 256° | 131 W/m² | - |
| 1778009667 | 26.67° C | 39% | 1006.2 hPa | 0 mm | 0.89 m/s, 242° | 129 W/m² | - |
| 1778009367 | 26.67° C | 38% | 1006.2 hPa | 0 mm | 1.79 m/s, 257° | 164 W/m² | - |
| 1778009070 | 26.67° C | 39% | 1006.3 hPa | 0 mm | 0.89 m/s, 247° | 184 W/m² | - |
| 1778008766 | 26.67° C | 38% | 1006.3 hPa | 0 mm | 1.79 m/s, 253° | 176 W/m² | - |
| 1778008467 | 27.22° C | 38% | 1006.1 hPa | 0 mm | 1.79 m/s, 247° | 198 W/m² | - |
| 1778008166 | 27.22° C | 38% | 1006.3 hPa | 0 mm | 1.79 m/s, 243° | 245 W/m² | - |
| 1778007867 | 27.22° C | 39% | 1006.1 hPa | 0 mm | 0.89 m/s, 273° | 417 W/m² | - |
| 1778007566 | 26.67° C | 40% | 1006.1 hPa | 0 mm | 1.34 m/s, 267° | 842 W/m² | - |
* Rain latest hour (hover to see other rain measurements)
** Current wind speed in m/s (hover to see current wind gust speed)